createdAt,value
2023-05-04T00:00:48.496Z,1028.29
2023-05-04T00:01:52.816Z,1028.31
2023-05-04T00:02:57.227Z,1028.29
2023-05-04T00:04:01.470Z,1028.27
2023-05-04T00:05:05.832Z,1028.23
2023-05-04T00:06:10.181Z,1028.22
2023-05-04T00:07:14.242Z,1028.27
2023-05-04T00:08:18.850Z,1028.24
2023-05-04T00:09:23.172Z,1028.24
2023-05-04T00:10:27.514Z,1028.19
2023-05-04T00:11:31.610Z,1028.22
2023-05-04T00:12:36.224Z,1028.18
2023-05-04T00:13:40.532Z,1028.19
2023-05-04T00:14:44.596Z,1028.24
2023-05-04T00:15:49.253Z,1028.20
2023-05-04T00:16:53.533Z,1028.22
2023-05-04T00:17:58.199Z,1028.22
2023-05-04T00:19:02.196Z,1028.21
2023-05-04T00:20:06.508Z,1028.25
2023-05-04T00:21:10.861Z,1028.19
2023-05-04T00:22:14.947Z,1028.22
2023-05-04T00:23:19.273Z,1028.21
2023-05-04T00:24:23.884Z,1028.17
2023-05-04T00:25:23.718Z,1028.19
2023-05-04T00:26:28.319Z,1028.12
2023-05-04T00:27:32.421Z,1028.12
2023-05-04T00:28:37.247Z,1028.08
2023-05-04T00:29:41.337Z,1028.14
2023-05-04T00:30:45.396Z,1028.10
2023-05-04T00:31:49.823Z,1028.06
2023-05-04T00:32:54.346Z,1028.13
2023-05-04T00:33:58.651Z,1028.12
2023-05-04T00:35:03.027Z,1028.16
2023-05-04T00:36:07.080Z,1028.08
2023-05-04T00:37:11.663Z,1028.12
2023-05-04T00:38:16.010Z,1028.09
2023-05-04T00:39:20.372Z,1028.12
2023-05-04T00:40:24.680Z,1028.09
2023-05-04T00:41:29.025Z,1028.10
2023-05-04T00:42:33.112Z,1028.09
2023-05-04T00:43:37.727Z,1028.06
2023-05-04T00:44:42.017Z,1028.08
2023-05-04T00:45:46.364Z,1028.09
2023-05-04T00:46:50.475Z,1028.08
2023-05-04T00:47:55.096Z,1028.03
2023-05-04T00:48:59.356Z,1028.06
2023-05-04T00:50:03.652Z,1028.03
2023-05-04T00:51:07.780Z,1028.03
2023-05-04T00:52:12.366Z,1028.04
2023-05-04T00:53:16.688Z,1028.02
2023-05-04T00:54:21.040Z,1028.03
2023-05-04T00:55:20.947Z,1028.02
2023-05-04T00:56:25.276Z,1027.98
2023-05-04T00:57:29.620Z,1027.95
2023-05-04T00:58:34.486Z,1027.99
2023-05-04T00:59:38.582Z,1028.00
2023-05-04T01:00:42.923Z,1027.95
2023-05-04T01:01:46.977Z,1027.98
2023-05-04T01:02:51.379Z,1027.96
2023-05-04T01:03:55.936Z,1027.94
2023-05-04T01:04:59.968Z,1027.99
2023-05-04T01:06:04.315Z,1027.93
2023-05-04T01:07:08.951Z,1027.91
2023-05-04T01:08:13.274Z,1027.94
2023-05-04T01:09:17.338Z,1027.94
2023-05-04T01:10:21.676Z,1027.94
2023-05-04T01:11:26.257Z,1027.91
2023-05-04T01:12:30.660Z,1027.86
2023-05-04T01:13:34.676Z,1027.88
2023-05-04T01:14:39.293Z,1027.86
2023-05-04T01:15:43.381Z,1027.91
2023-05-04T01:16:47.995Z,1027.84
2023-05-04T01:17:52.335Z,1027.84
2023-05-04T01:18:56.622Z,1027.86
2023-05-04T01:20:00.957Z,1027.83
2023-05-04T01:21:05.034Z,1027.84
2023-05-04T01:22:09.370Z,1027.77
2023-05-04T01:23:13.703Z,1027.87
2023-05-04T01:24:18.308Z,1027.87
2023-05-04T01:25:18.143Z,1027.83
2023-05-04T01:26:22.742Z,1027.83
2023-05-04T01:27:27.090Z,1027.79
2023-05-04T01:28:31.431Z,1027.76
2023-05-04T01:29:35.776Z,1027.77
2023-05-04T01:30:40.120Z,1027.77
2023-05-04T01:31:44.450Z,1027.82
2023-05-04T01:32:48.575Z,1027.82
2023-05-04T01:33:53.114Z,1027.83
2023-05-04T01:34:57.440Z,1027.83
2023-05-04T01:36:01.811Z,1027.83
2023-05-04T01:37:05.869Z,1027.86
2023-05-04T01:38:10.498Z,1027.82
2023-05-04T01:39:14.547Z,1027.88
2023-05-04T01:40:18.879Z,1027.84
2023-05-04T01:41:23.195Z,1027.84
2023-05-04T01:42:27.585Z,1027.82
2023-05-04T01:43:32.141Z,1027.84
2023-05-04T01:44:36.457Z,1027.80
2023-05-04T01:45:40.779Z,1027.84
2023-05-04T01:46:45.416Z,1027.85
2023-05-04T01:47:49.569Z,1027.85
2023-05-04T01:48:53.799Z,1027.87
2023-05-04T01:49:58.119Z,1027.82
2023-05-04T01:51:02.477Z,1027.84
2023-05-04T01:52:06.545Z,1027.85
2023-05-04T01:53:10.876Z,1027.84
2023-05-04T01:54:15.206Z,1027.84
2023-05-04T01:55:15.615Z,1027.82
2023-05-04T01:56:19.988Z,1027.79
2023-05-04T01:57:23.999Z,1027.77
2023-05-04T01:58:28.864Z,1027.84
2023-05-04T01:59:32.696Z,1027.81
2023-05-04T02:00:37.289Z,1027.75
2023-05-04T02:01:41.726Z,1027.79
2023-05-04T02:02:46.141Z,1027.81
2023-05-04T02:03:50.397Z,1027.83
2023-05-04T02:04:54.653Z,1027.83
2023-05-04T02:05:58.712Z,1027.81
2023-05-04T02:07:03.046Z,1027.84
2023-05-04T02:08:07.911Z,1027.80
2023-05-04T02:09:11.722Z,1027.83
2023-05-04T02:10:16.314Z,1027.83
2023-05-04T02:11:20.649Z,1027.83
2023-05-04T02:12:24.995Z,1027.80
2023-05-04T02:13:29.068Z,1027.82
2023-05-04T02:14:33.667Z,1027.79
2023-05-04T02:15:37.741Z,1027.79
2023-05-04T02:16:42.334Z,1027.79
2023-05-04T02:17:46.736Z,1027.78
2023-05-04T02:18:51.025Z,1027.77
2023-05-04T02:19:55.119Z,1027.73
2023-05-04T02:20:59.695Z,1027.77
2023-05-04T02:22:04.060Z,1027.74
2023-05-04T02:23:08.125Z,1027.74
2023-05-04T02:24:12.482Z,1027.73
2023-05-04T02:25:12.662Z,1027.72
2023-05-04T02:26:17.269Z,1027.71
2023-05-04T02:27:21.330Z,1027.70
2023-05-04T02:28:25.927Z,1027.70
2023-05-04T02:29:30.007Z,1027.73
2023-05-04T02:30:34.353Z,1027.74
2023-05-04T02:31:38.717Z,1027.73
2023-05-04T02:32:43.050Z,1027.74
2023-05-04T02:33:47.378Z,1027.70
2023-05-04T02:34:51.707Z,1027.72
2023-05-04T02:35:56.088Z,1027.74
2023-05-04T02:37:00.897Z,1027.73
2023-05-04T02:38:04.968Z,1027.67
2023-05-04T02:39:09.055Z,1027.65
2023-05-04T02:40:13.393Z,1027.63
2023-05-04T02:41:17.727Z,1027.69
2023-05-04T02:42:22.334Z,1027.66
2023-05-04T02:43:26.425Z,1027.68
2023-05-04T02:44:30.756Z,1027.69
2023-05-04T02:45:35.379Z,1027.66
2023-05-04T02:46:39.691Z,1027.62
2023-05-04T02:47:44.310Z,1027.66
2023-05-04T02:48:48.364Z,1027.64
2023-05-04T02:49:52.455Z,1027.69
2023-05-04T02:50:56.775Z,1027.65
2023-05-04T02:52:01.391Z,1027.67
2023-05-04T02:53:05.453Z,1027.67
2023-05-04T02:54:10.056Z,1027.62
2023-05-04T02:55:10.257Z,1027.65
2023-05-04T02:56:14.601Z,1027.67
2023-05-04T02:57:19.165Z,1027.67
2023-05-04T02:58:23.510Z,1027.67
2023-05-04T02:59:27.619Z,1027.66
2023-05-04T03:00:31.955Z,1027.65
2023-05-04T03:01:36.114Z,1027.64
2023-05-04T03:02:40.649Z,1027.63
2023-05-04T03:03:44.998Z,1027.64
2023-05-04T03:04:49.021Z,1027.71
2023-05-04T03:05:53.629Z,1027.66
2023-05-04T03:06:58.214Z,1027.64
2023-05-04T03:08:02.572Z,1027.64
2023-05-04T03:09:06.368Z,1027.65
2023-05-04T03:10:10.711Z,1027.60
2023-05-04T03:11:15.307Z,1027.64
2023-05-04T03:12:19.643Z,1027.61
2023-05-04T03:13:23.964Z,1027.64
2023-05-04T03:14:28.314Z,1027.66
2023-05-04T03:15:33.009Z,1027.58
2023-05-04T03:16:37.161Z,1027.60
2023-05-04T03:17:41.494Z,1027.58
2023-05-04T03:18:45.532Z,1027.59
2023-05-04T03:19:49.870Z,1027.61
2023-05-04T03:20:54.203Z,1027.60
2023-05-04T03:21:58.803Z,1027.60
2023-05-04T03:23:02.880Z,1027.62
2023-05-04T03:24:07.249Z,1027.67
2023-05-04T03:25:07.855Z,1027.64
2023-05-04T03:26:11.957Z,1027.63
2023-05-04T03:27:16.288Z,1027.68
2023-05-04T03:28:20.634Z,1027.71
2023-05-04T03:29:24.998Z,1027.68
2023-05-04T03:30:29.053Z,1027.69
2023-05-04T03:31:33.695Z,1027.68
2023-05-04T03:32:37.762Z,1027.65
2023-05-04T03:33:42.342Z,1027.69
2023-05-04T03:34:46.393Z,1027.65
2023-05-04T03:35:51.270Z,1027.65
2023-05-04T03:36:55.597Z,1027.69
2023-05-04T03:37:59.412Z,1027.65
2023-05-04T03:39:03.757Z,1027.62
2023-05-04T03:40:08.390Z,1027.67
2023-05-04T03:41:12.682Z,1027.61
2023-05-04T03:42:17.031Z,1027.64
2023-05-04T03:43:21.170Z,1027.66
2023-05-04T03:44:25.696Z,1027.66
2023-05-04T03:45:30.301Z,1027.66
2023-05-04T03:46:34.707Z,1027.64
2023-05-04T03:47:38.847Z,1027.64
2023-05-04T03:48:43.061Z,1027.63
2023-05-04T03:49:47.382Z,1027.67
2023-05-04T03:50:51.737Z,1027.64
2023-05-04T03:51:56.086Z,1027.61
2023-05-04T03:53:00.394Z,1027.63
2023-05-04T03:54:04.994Z,1027.62
2023-05-04T03:55:05.170Z,1027.60
2023-05-04T03:56:09.298Z,1027.63
2023-05-04T03:57:13.815Z,1027.60
2023-05-04T03:58:17.879Z,1027.64
2023-05-04T03:59:21.975Z,1027.64
2023-05-04T04:00:26.298Z,1027.63
2023-05-04T04:01:30.642Z,1027.64
2023-05-04T04:02:35.328Z,1027.63
2023-05-04T04:03:39.692Z,1027.62
2023-05-04T04:04:43.969Z,1027.58
2023-05-04T04:05:48.508Z,1027.60
2023-05-04T04:06:52.612Z,1027.60
2023-05-04T04:07:56.923Z,1027.61
2023-05-04T04:09:01.010Z,1027.59
2023-05-04T04:10:05.709Z,1027.59
2023-05-04T04:11:09.687Z,1027.53
2023-05-04T04:12:14.327Z,1027.53
2023-05-04T04:13:18.740Z,1027.57
2023-05-04T04:14:22.959Z,1027.53
2023-05-04T04:15:27.301Z,1027.59
2023-05-04T04:16:31.940Z,1027.57
2023-05-04T04:17:35.750Z,1027.51
2023-05-04T04:18:40.317Z,1027.57
2023-05-04T04:19:44.384Z,1027.56
2023-05-04T04:20:48.715Z,1027.56
2023-05-04T04:21:53.308Z,1027.52
2023-05-04T04:22:57.402Z,1027.56
2023-05-04T04:24:02.269Z,1027.55
2023-05-04T04:25:02.432Z,1027.56
2023-05-04T04:26:06.469Z,1027.55
2023-05-04T04:27:10.815Z,1027.56
2023-05-04T04:28:15.171Z,1027.54
2023-05-04T04:29:19.490Z,1027.54
2023-05-04T04:30:23.559Z,1027.58
2023-05-04T04:31:28.201Z,1027.54
2023-05-04T04:32:32.571Z,1027.51
2023-05-04T04:33:36.590Z,1027.51
2023-05-04T04:34:41.170Z,1027.51
2023-05-04T04:35:45.765Z,1027.55
2023-05-04T04:36:50.085Z,1027.54
2023-05-04T04:37:54.264Z,1027.52
2023-05-04T04:38:58.342Z,1027.50
2023-05-04T04:40:03.041Z,1027.48
2023-05-04T04:41:07.008Z,1027.52
2023-05-04T04:42:11.352Z,1027.51
2023-05-04T04:43:15.960Z,1027.53
2023-05-04T04:44:20.565Z,1027.57
2023-05-04T04:45:24.670Z,1027.57
2023-05-04T04:46:28.736Z,1027.58
2023-05-04T04:47:33.336Z,1027.62
2023-05-04T04:48:37.635Z,1027.56
2023-05-04T04:49:41.973Z,1027.60
2023-05-04T04:50:46.053Z,1027.60
2023-05-04T04:51:50.381Z,1027.64
2023-05-04T04:52:54.994Z,1027.55
2023-05-04T04:53:59.558Z,1027.58
2023-05-04T04:54:59.465Z,1027.62
2023-05-04T04:56:04.047Z,1027.58
2023-05-04T04:57:07.863Z,1027.57
2023-05-04T04:58:18.944Z,1027.57
2023-05-04T04:59:16.808Z,1027.59
2023-05-04T05:00:20.911Z,1027.57
2023-05-04T05:01:25.246Z,1027.57
2023-05-04T05:02:29.827Z,1027.59
2023-05-04T05:03:33.926Z,1027.57
2023-05-04T05:04:38.529Z,1027.54
2023-05-04T05:05:42.827Z,1027.57
2023-05-04T05:06:47.176Z,1027.54
2023-05-04T05:07:51.520Z,1027.52
2023-05-04T05:08:55.580Z,1027.51
2023-05-04T05:10:02.759Z,1027.52
2023-05-04T05:11:02.062Z,1027.49
2023-05-04T05:12:06.131Z,1027.52
2023-05-04T05:13:10.791Z,1027.50
2023-05-04T05:14:15.080Z,1027.49
2023-05-04T05:15:19.675Z,1027.46
2023-05-04T05:16:24.032Z,1027.52
2023-05-04T05:17:28.117Z,1027.46
2023-05-04T05:18:32.445Z,1027.45
2023-05-04T05:19:36.496Z,1027.49
2023-05-04T05:20:40.835Z,1027.48
2023-05-04T05:21:45.164Z,1027.45
2023-05-04T05:22:49.750Z,1027.43
2023-05-04T05:23:53.840Z,1027.49
2023-05-04T05:24:58.298Z,1027.43
2023-05-04T05:25:58.285Z,1027.49
2023-05-04T05:27:02.903Z,1027.46
2023-05-04T05:28:07.219Z,1027.44
2023-05-04T05:29:11.569Z,1027.45
2023-05-04T05:30:15.884Z,1027.40
2023-05-04T05:31:19.999Z,1027.43
2023-05-04T05:32:24.649Z,1027.45
2023-05-04T05:33:28.919Z,1027.43
2023-05-04T05:34:32.989Z,1027.43
2023-05-04T05:35:37.312Z,1027.42
2023-05-04T05:36:41.911Z,1027.39
2023-05-04T05:37:46.228Z,1027.40
2023-05-04T05:38:50.582Z,1027.43
2023-05-04T05:39:54.642Z,1027.43
2023-05-04T05:40:58.974Z,1027.32
2023-05-04T05:42:03.583Z,1027.33
2023-05-04T05:43:07.912Z,1027.38
2023-05-04T05:44:13.046Z,1027.38
2023-05-04T05:45:16.815Z,1027.41
2023-05-04T05:46:20.952Z,1027.38
2023-05-04T05:47:25.264Z,1027.40
2023-05-04T05:48:37.318Z,1027.35
2023-05-04T05:49:33.903Z,1027.42
2023-05-04T05:50:38.240Z,1027.40
2023-05-04T05:51:42.563Z,1027.35
2023-05-04T05:52:46.921Z,1027.40
2023-05-04T05:53:51.232Z,1027.35
2023-05-04T05:54:55.599Z,1027.36
2023-05-04T05:55:55.713Z,1027.42
2023-05-04T05:57:00.024Z,1027.41
2023-05-04T05:58:04.370Z,1027.41
2023-05-04T05:59:08.475Z,1027.45
2023-05-04T06:00:12.804Z,1027.44
2023-05-04T06:01:17.145Z,1027.42
2023-05-04T06:02:21.828Z,1027.40
2023-05-04T06:03:26.331Z,1027.39
2023-05-04T06:04:30.472Z,1027.38
2023-05-04T06:05:34.801Z,1027.36
2023-05-04T06:06:39.144Z,1027.36
2023-05-04T06:07:43.520Z,1027.33
2023-05-04T06:08:47.607Z,1027.37
2023-05-04T06:09:52.210Z,1027.35
2023-05-04T06:10:56.301Z,1027.39
2023-05-04T06:12:00.676Z,1027.38
2023-05-04T06:13:04.277Z,1027.37
2023-05-04T06:14:09.694Z,1027.35
2023-05-04T06:15:14.245Z,1027.36
2023-05-04T06:16:18.629Z,1027.36
2023-05-04T06:17:22.763Z,1027.37
2023-05-04T06:18:27.009Z,1027.35
2023-05-04T06:19:31.616Z,1027.36
2023-05-04T06:20:35.704Z,1027.40
2023-05-04T06:21:40.022Z,1027.35
2023-05-04T06:22:44.348Z,1027.34
2023-05-04T06:23:48.689Z,1027.38
2023-05-04T06:24:55.668Z,1027.36
2023-05-04T06:25:52.910Z,1027.26
2023-05-04T06:26:57.485Z,1027.29
2023-05-04T06:27:58.298Z,1027.31
2023-05-04T06:29:05.678Z,1027.29
2023-05-04T06:30:09.984Z,1027.30
2023-05-04T06:31:14.092Z,1027.31
2023-05-04T06:32:18.461Z,1027.29
2023-05-04T06:33:22.742Z,1027.28
2023-05-04T06:34:27.335Z,1027.27
2023-05-04T06:35:31.787Z,1027.28
2023-05-04T06:36:36.397Z,1027.28
2023-05-04T06:37:40.110Z,1027.27
2023-05-04T06:38:44.703Z,1027.29
2023-05-04T06:39:49.108Z,1027.30
2023-05-04T06:40:54.120Z,1027.29
2023-05-04T06:41:53.491Z,1027.28
2023-05-04T06:42:57.596Z,1027.30
2023-05-04T06:44:02.188Z,1027.31
2023-05-04T06:45:06.511Z,1027.30
2023-05-04T06:46:10.882Z,1027.25
2023-05-04T06:47:15.448Z,1027.28
2023-05-04T06:48:19.565Z,1027.29
2023-05-04T06:49:23.684Z,1027.28
2023-05-04T06:50:28.227Z,1027.28
2023-05-04T06:51:32.561Z,1027.26
2023-05-04T06:52:39.409Z,1027.25
2023-05-04T06:53:38.532Z,1027.25
2023-05-04T06:54:42.858Z,1027.22
2023-05-04T06:55:42.970Z,1027.27
2023-05-04T06:56:47.315Z,1027.20
2023-05-04T06:57:51.928Z,1027.23
2023-05-04T06:58:56.265Z,1027.21
2023-05-04T07:00:00.614Z,1027.22
2023-05-04T07:01:05.247Z,1027.19
2023-05-04T07:02:09.013Z,1027.21
2023-05-04T07:03:13.380Z,1027.18
2023-05-04T07:04:17.679Z,1027.20
2023-05-04T07:05:22.273Z,1027.18
2023-05-04T07:06:26.621Z,1027.20
2023-05-04T07:07:30.994Z,1027.14
2023-05-04T07:08:35.574Z,1027.21
2023-05-04T07:09:39.885Z,1027.24
2023-05-04T07:10:43.955Z,1027.23
2023-05-04T07:11:48.321Z,1027.21
2023-05-04T07:12:52.450Z,1027.24
2023-05-04T07:13:56.726Z,1027.23
2023-05-04T07:15:01.313Z,1027.20
2023-05-04T07:16:05.709Z,1027.19
2023-05-04T07:17:09.732Z,1027.21
2023-05-04T07:18:14.397Z,1027.21
2023-05-04T07:19:18.910Z,1027.16
2023-05-04T07:20:25.671Z,1027.19
2023-05-04T07:21:29.371Z,1027.14
2023-05-04T07:22:31.690Z,1027.11
2023-05-04T07:23:35.754Z,1027.13
2023-05-04T07:24:40.496Z,1027.05
2023-05-04T07:25:40.315Z,1027.09
2023-05-04T07:26:44.953Z,1027.12
2023-05-04T07:27:49.030Z,1027.00
2023-05-04T07:28:53.626Z,1027.09
2023-05-04T07:29:58.218Z,1027.03
2023-05-04T07:31:02.577Z,1027.10
2023-05-04T07:32:06.406Z,1027.05
2023-05-04T07:33:10.749Z,1027.02
2023-05-04T07:34:15.312Z,1027.14
2023-05-04T07:35:19.634Z,1027.10
2023-05-04T07:36:23.985Z,1027.12
2023-05-04T07:37:28.307Z,1027.08
2023-05-04T07:38:32.647Z,1027.05
2023-05-04T07:39:37.220Z,1027.03
2023-05-04T07:40:41.084Z,1027.07
2023-05-04T07:41:46.657Z,1027.06
2023-05-04T07:42:49.754Z,1027.02
2023-05-04T07:43:54.357Z,1027.01
2023-05-04T07:44:58.436Z,1027.05
2023-05-04T07:46:02.819Z,1027.04
2023-05-04T07:47:07.475Z,1027.03
2023-05-04T07:48:12.101Z,1027.00
2023-05-04T07:49:15.892Z,1027.08
2023-05-04T07:50:20.236Z,1027.04
2023-05-04T07:51:24.941Z,1027.03
2023-05-04T07:52:28.914Z,1027.05
2023-05-04T07:53:33.290Z,1027.08
2023-05-04T07:54:37.833Z,1027.04
2023-05-04T07:55:38.094Z,1027.06
2023-05-04T07:56:42.163Z,1027.03
2023-05-04T07:57:46.719Z,1027.01
2023-05-04T07:58:50.817Z,1027.00
2023-05-04T07:59:55.417Z,1027.01
2023-05-04T08:01:00.500Z,1027.00
2023-05-04T08:02:04.551Z,1027.01
2023-05-04T08:03:08.906Z,1027.03
2023-05-04T08:04:13.494Z,1027.00
2023-05-04T08:05:17.566Z,1027.01
2023-05-04T08:06:22.214Z,1027.02
2023-05-04T08:07:26.856Z,1026.95
2023-05-04T08:08:31.163Z,1027.00
2023-05-04T08:09:35.486Z,1027.00
2023-05-04T08:10:39.563Z,1027.03
2023-05-04T08:11:44.182Z,1027.01
2023-05-04T08:12:48.286Z,1027.04
2023-05-04T08:13:52.859Z,1027.01
2023-05-04T08:14:56.968Z,1026.98
2023-05-04T08:16:01.595Z,1026.97
2023-05-04T08:17:05.917Z,1026.98
2023-05-04T08:18:10.262Z,1026.97
2023-05-04T08:19:14.592Z,1026.96
2023-05-04T08:20:18.934Z,1026.92
2023-05-04T08:21:23.003Z,1026.91
2023-05-04T08:22:27.334Z,1026.98
2023-05-04T08:23:31.676Z,1026.93
2023-05-04T08:24:36.252Z,1026.92
2023-05-04T08:25:36.644Z,1026.87
2023-05-04T08:26:41.397Z,1026.90
2023-05-04T08:27:45.264Z,1026.88
2023-05-04T08:28:49.665Z,1026.86
2023-05-04T08:29:53.734Z,1026.85
2023-05-04T08:30:58.101Z,1026.82
2023-05-04T08:32:02.782Z,1026.77
2023-05-04T08:33:06.911Z,1026.80
2023-05-04T08:34:11.183Z,1026.79
2023-05-04T08:35:15.495Z,1026.82
2023-05-04T08:36:19.840Z,1026.82
2023-05-04T08:37:24.441Z,1026.78
2023-05-04T08:38:28.534Z,1026.80
2023-05-04T08:39:32.632Z,1026.79
2023-05-04T08:40:37.208Z,1026.75
2023-05-04T08:41:41.541Z,1026.72
2023-05-04T08:42:45.612Z,1026.78
2023-05-04T08:43:50.253Z,1026.79
2023-05-04T08:44:54.585Z,1026.76
2023-05-04T08:45:58.713Z,1026.77
2023-05-04T08:47:03.289Z,1026.77
2023-05-04T08:48:07.677Z,1026.75
2023-05-04T08:49:11.958Z,1026.72
2023-05-04T08:50:16.026Z,1026.69
2023-05-04T08:51:20.370Z,1026.72
2023-05-04T08:52:24.782Z,1026.66
2023-05-04T08:53:29.300Z,1026.66
2023-05-04T08:54:33.682Z,1026.66
2023-05-04T08:55:34.094Z,1026.66
2023-05-04T08:56:37.885Z,1026.62
2023-05-04T08:57:42.762Z,1026.67
2023-05-04T08:58:47.124Z,1026.64
2023-05-04T08:59:51.337Z,1026.62
2023-05-04T09:00:55.665Z,1026.62
2023-05-04T09:01:59.977Z,1026.59
2023-05-04T09:03:04.066Z,1026.60
2023-05-04T09:04:08.345Z,1026.58
2023-05-04T09:05:12.667Z,1026.56
2023-05-04T09:06:17.259Z,1026.58
2023-05-04T09:07:21.640Z,1026.60
2023-05-04T09:08:26.184Z,1026.62
2023-05-04T09:09:30.008Z,1026.58
2023-05-04T09:10:34.376Z,1026.59
2023-05-04T09:11:38.697Z,1026.59
2023-05-04T09:12:43.071Z,1026.61
2023-05-04T09:13:47.373Z,1026.57
2023-05-04T09:14:51.705Z,1026.57
2023-05-04T09:15:56.534Z,1026.57
2023-05-04T09:17:01.167Z,1026.59
2023-05-04T09:18:05.237Z,1026.58
2023-05-04T09:19:10.000Z,1026.47
2023-05-04T09:20:13.866Z,1026.55
2023-05-04T09:21:18.416Z,1026.53
2023-05-04T09:22:22.496Z,1026.52
2023-05-04T09:23:27.095Z,1026.55
2023-05-04T09:24:31.162Z,1026.50
2023-05-04T09:25:31.832Z,1026.48
2023-05-04T09:26:35.655Z,1026.45
2023-05-04T09:27:40.273Z,1026.44
2023-05-04T09:28:44.891Z,1026.42
2023-05-04T09:29:48.703Z,1026.43
2023-05-04T09:30:53.295Z,1026.39
2023-05-04T09:31:58.071Z,1026.40
2023-05-04T09:33:02.151Z,1026.36
2023-05-04T09:34:06.709Z,1026.40
2023-05-04T09:35:14.201Z,1026.35
2023-05-04T09:36:15.649Z,1026.37
2023-05-04T09:37:19.972Z,1026.36
2023-05-04T09:38:23.798Z,1026.30
2023-05-04T09:39:28.390Z,1026.27
2023-05-04T09:40:32.462Z,1026.32
2023-05-04T09:41:36.798Z,1026.31
2023-05-04T09:42:41.408Z,1026.24
2023-05-04T09:43:45.479Z,1026.28
2023-05-04T09:44:50.075Z,1026.26
2023-05-04T09:45:54.637Z,1026.34
2023-05-04T09:46:59.168Z,1026.31
2023-05-04T09:48:03.298Z,1026.30
2023-05-04T09:49:07.588Z,1026.25
2023-05-04T09:50:11.938Z,1026.31
2023-05-04T09:51:16.004Z,1026.22
2023-05-04T09:52:20.349Z,1026.25
2023-05-04T09:53:25.018Z,1026.17
2023-05-04T09:54:29.547Z,1026.18
2023-05-04T09:55:29.722Z,1026.19
2023-05-04T09:56:33.809Z,1026.19
2023-05-04T09:57:38.144Z,1026.09
2023-05-04T09:58:42.228Z,1026.08
2023-05-04T09:59:46.840Z,1026.05
2023-05-04T10:00:51.180Z,1026.05
2023-05-04T10:01:55.861Z,1026.04
2023-05-04T10:02:59.636Z,1026.04
2023-05-04T10:04:04.305Z,1025.98
2023-05-04T10:05:08.701Z,1025.94
2023-05-04T10:06:13.174Z,1025.96
2023-05-04T10:07:17.515Z,1025.92
2023-05-04T10:08:21.366Z,1025.88
2023-05-04T10:09:25.721Z,1025.89
2023-05-04T10:10:30.319Z,1025.87
2023-05-04T10:11:34.416Z,1025.87
2023-05-04T10:12:38.820Z,1025.87
2023-05-04T10:13:43.368Z,1025.79
2023-05-04T10:14:47.981Z,1025.76
2023-05-04T10:15:52.160Z,1025.76
2023-05-04T10:16:56.435Z,1025.77
2023-05-04T10:18:00.541Z,1025.74
2023-05-04T10:19:05.347Z,1025.70
2023-05-04T10:20:10.020Z,1025.67
2023-05-04T10:21:14.027Z,1025.66
2023-05-04T10:22:18.632Z,1025.65
2023-05-04T10:23:24.030Z,1025.66
2023-05-04T10:24:27.313Z,1025.59
2023-05-04T10:25:32.922Z,1025.61
2023-05-04T10:26:36.754Z,1025.67
2023-05-04T10:27:41.605Z,1025.67
2023-05-04T10:28:45.954Z,1025.63
2023-05-04T10:30:43.933Z,1025.52
2023-05-04T10:31:42.923Z,1025.56
2023-05-04T10:32:47.486Z,1025.56
2023-05-04T10:33:51.940Z,1025.60
2023-05-04T10:34:57.377Z,1025.57
2023-05-04T10:36:00.529Z,1025.51
2023-05-04T10:37:05.014Z,1025.51
2023-05-04T10:38:09.082Z,1025.48
2023-05-04T10:39:13.706Z,1025.44
2023-05-04T10:40:18.050Z,1025.45
2023-05-04T10:41:22.142Z,1025.39
2023-05-04T10:42:26.758Z,1025.45
2023-05-04T10:43:31.092Z,1025.38
2023-05-04T10:44:35.467Z,1025.34
2023-05-04T10:45:39.896Z,1025.36
2023-05-04T10:46:44.161Z,1025.36
2023-05-04T10:47:48.512Z,1025.33
2023-05-04T10:48:52.580Z,1025.36
2023-05-04T10:49:57.174Z,1025.34
2023-05-04T10:51:01.524Z,1025.33
2023-05-04T10:52:05.653Z,1025.31
2023-05-04T10:53:10.214Z,1025.32
2023-05-04T10:54:14.580Z,1025.32
2023-05-04T10:55:19.209Z,1025.29
2023-05-04T10:56:23.277Z,1025.29
2023-05-04T10:57:27.648Z,1025.29
2023-05-04T10:58:31.972Z,1025.30
2023-05-04T10:59:36.876Z,1025.25
2023-05-04T11:00:36.444Z,1025.21
2023-05-04T11:01:40.636Z,1025.21
2023-05-04T11:02:45.201Z,1025.18
2023-05-04T11:03:49.598Z,1025.17
2023-05-04T11:04:53.839Z,1025.18
2023-05-04T11:05:58.180Z,1025.19
2023-05-04T11:07:02.780Z,1025.10
2023-05-04T11:08:06.928Z,1025.07
2023-05-04T11:09:10.993Z,1025.08
2023-05-04T11:10:15.403Z,1025.06
2023-05-04T11:11:19.666Z,1025.04
2023-05-04T11:12:24.262Z,1024.99
2023-05-04T11:13:28.608Z,1025.00
2023-05-04T11:14:32.682Z,1024.95
2023-05-04T11:15:37.553Z,1024.95
2023-05-04T11:16:41.669Z,1024.92
2023-05-04T11:17:45.724Z,1024.92
2023-05-04T11:18:50.372Z,1024.84
2023-05-04T11:19:54.728Z,1024.86
2023-05-04T11:20:59.287Z,1024.88
2023-05-04T11:22:03.638Z,1024.90
2023-05-04T11:23:08.000Z,1024.87
2023-05-04T11:24:13.266Z,1024.85
2023-05-04T11:25:17.339Z,1024.90
2023-05-04T11:26:21.383Z,1024.84
2023-05-04T11:27:25.721Z,1024.83
2023-05-04T11:28:30.337Z,1024.86
2023-05-04T11:29:34.416Z,1024.90
2023-05-04T11:30:34.560Z,1024.86
2023-05-04T11:31:38.875Z,1024.82
2023-05-04T11:32:43.244Z,1024.92
2023-05-04T11:33:47.559Z,1024.86
2023-05-04T11:34:52.444Z,1024.86
2023-05-04T11:35:58.470Z,1024.82
2023-05-04T11:36:56.310Z,1024.71
2023-05-04T11:38:00.945Z,1024.76
2023-05-04T11:39:02.681Z,1024.71
2023-05-04T11:40:09.822Z,1024.71
2023-05-04T11:41:14.381Z,1024.69
2023-05-04T11:42:21.227Z,1024.66
2023-05-04T11:43:20.372Z,1024.68
2023-05-04T11:44:31.459Z,1024.64
2023-05-04T11:45:29.337Z,1024.70
2023-05-04T11:46:32.657Z,1024.69
2023-05-04T11:47:41.015Z,1024.64
2023-05-04T11:48:40.108Z,1024.61
2023-05-04T11:49:52.459Z,1024.60
2023-05-04T11:50:47.982Z,1024.59
2023-05-04T11:51:50.385Z,1024.60
2023-05-04T11:52:54.627Z,1024.53
2023-05-04T11:53:58.985Z,1024.56
2023-05-04T11:55:03.050Z,1024.48
2023-05-04T11:56:07.692Z,1024.46
2023-05-04T11:57:10.963Z,1024.40
2023-05-04T11:58:13.708Z,1024.37
2023-05-04T11:59:17.579Z,1024.38
2023-05-04T12:00:26.056Z,1024.39
2023-05-04T12:01:30.146Z,1024.37
2023-05-04T12:02:34.792Z,1024.40
2023-05-04T12:03:52.027Z,1024.39
2023-05-04T12:04:43.403Z,1024.39
2023-05-04T12:05:48.113Z,1024.37
2023-05-04T12:06:52.143Z,1024.34
2023-05-04T12:07:56.984Z,1024.29
2023-05-04T12:09:01.077Z,1024.24
2023-05-04T12:10:05.323Z,1024.21
2023-05-04T12:11:09.649Z,1024.21
2023-05-04T12:12:14.288Z,1024.28
2023-05-04T12:13:18.398Z,1024.26
2023-05-04T12:14:22.778Z,1024.18
2023-05-04T12:18:12.372Z,1024.13
2023-05-04T12:19:16.931Z,1024.20
2023-05-04T12:20:19.829Z,1024.14
2023-05-04T12:21:19.646Z,1024.25
2023-05-04T12:22:30.032Z,1024.17
2023-05-04T12:23:26.621Z,1024.19
2023-05-04T12:24:33.753Z,1024.13
2023-05-04T12:25:47.356Z,1024.20
2023-05-04T12:26:40.086Z,1024.21
2023-05-04T12:27:47.672Z,1024.17
2023-05-04T12:28:51.354Z,1024.25
2023-05-04T12:29:56.979Z,1024.21
2023-05-04T12:31:01.085Z,1024.20
2023-05-04T12:32:02.838Z,1024.17
2023-05-04T12:33:05.568Z,1024.15
2023-05-04T12:34:10.290Z,1024.20
2023-05-04T12:35:14.389Z,1024.15
2023-05-04T12:36:18.027Z,1024.13
2023-05-04T12:37:20.175Z,1024.15
2023-05-04T12:38:24.512Z,1024.10
2023-05-04T12:39:28.593Z,1024.07
2023-05-04T12:40:35.714Z,1024.06
2023-05-04T12:41:30.816Z,1024.05
2023-05-04T12:42:38.143Z,1023.99
2023-05-04T12:43:42.627Z,1024.02
2023-05-04T12:44:46.588Z,1024.05
2023-05-04T12:45:48.771Z,1024.02
2023-05-04T12:46:48.847Z,1024.01
2023-05-04T12:47:52.201Z,1024.02
2023-05-04T12:48:58.974Z,1024.00
2023-05-04T12:49:56.776Z,1023.98
2023-05-04T12:51:01.382Z,1024.03
2023-05-04T12:52:05.726Z,1024.02
2023-05-04T12:53:10.669Z,1024.01
2023-05-04T12:54:14.769Z,1023.99
2023-05-04T12:55:19.060Z,1023.99
2023-05-04T12:56:23.459Z,1024.00
2023-05-04T12:57:30.388Z,1024.01
2023-05-04T12:58:49.394Z,1023.96
2023-05-04T12:59:28.919Z,1023.97